Lino Lakes, Minnesota
Current Conditions -  °F | °C
As of 6:11 AM on Sunday 23 Nov 2014 (Local Time) from K21D Reporting Station
Haze Haze  
Wind Chill: 42°   Ceiling: 1200
Heat Index: 46°   Visibility: 3mi
Dew Point: 46°   Wind: 8mph
Humidity: 100%   Direction: 190°S
Pressure: 29.44"   Gusts: NA
Location:  45.0958°N, 93.0043°W
Report Text: K21D 231211Z AUTO 19007KT 3SM BR BKN012 OVC020 08/08 A2944 RMK AO2
Loading
Personal Weather Stations






























Interactive Weather Map New forecast layout! Learn more

10-Day Weather Forecast

Advertisements
Track Severe Weather on mobile